createdAt,value
2018-01-14T00:01:37.408Z,54.10
2018-01-14T00:04:06.611Z,53.60
2018-01-14T00:06:35.682Z,53.50
2018-01-14T00:09:04.606Z,53.40
2018-01-14T00:11:32.387Z,53.10
2018-01-14T00:14:01.281Z,52.90
2018-01-14T00:16:29.067Z,52.90
2018-01-14T00:18:58.259Z,52.90
2018-01-14T00:21:27.392Z,52.80
2018-01-14T00:23:56.606Z,52.70
2018-01-14T00:26:32.041Z,52.70
2018-01-14T00:28:59.965Z,52.70
2018-01-14T00:31:28.955Z,52.60
2018-01-14T00:33:57.804Z,52.50
2018-01-14T00:36:25.700Z,52.40
2018-01-14T00:38:54.885Z,52.40
2018-01-14T00:41:23.763Z,52.40
2018-01-14T00:43:52.892Z,52.30
2018-01-14T00:46:21.944Z,52.10
2018-01-14T00:48:51.039Z,52.20
2018-01-14T00:51:19.914Z,52.20
2018-01-14T00:53:47.686Z,52.20
2018-01-14T00:56:17.815Z,52.20
2018-01-14T00:58:45.630Z,52.20
2018-01-14T01:01:13.531Z,52.30
2018-01-14T01:06:17.395Z,52.40
2018-01-14T01:08:46.495Z,52.40
2018-01-14T01:11:15.479Z,52.50
2018-01-14T01:13:44.489Z,52.60
2018-01-14T01:16:13.560Z,52.60
2018-01-14T01:18:41.382Z,53.10
2018-01-14T01:21:11.014Z,52.50
2018-01-14T01:23:38.927Z,52.50
2018-01-14T01:26:07.911Z,52.50
2018-01-14T01:28:35.763Z,52.40
2018-01-14T01:31:04.825Z,52.40
2018-01-14T01:33:32.584Z,52.20
2018-01-14T01:36:01.782Z,52.10
2018-01-14T01:38:29.617Z,52.10
2018-01-14T01:40:58.746Z,52.00
2018-01-14T01:43:34.427Z,52.00
2018-01-14T01:46:02.191Z,51.80
2018-01-14T01:48:33.949Z,51.80
2018-01-14T01:51:01.764Z,51.70
2018-01-14T01:53:29.543Z,51.70
2018-01-14T01:55:57.310Z,51.60
2018-01-14T01:58:27.265Z,51.50
2018-01-14T02:00:55.250Z,51.40
2018-01-14T02:03:23.155Z,51.50
2018-01-14T02:05:51.042Z,51.50
2018-01-14T02:08:20.267Z,51.40
2018-01-14T02:10:48.163Z,51.30
2018-01-14T02:13:16.808Z,51.20
2018-01-14T02:15:44.575Z,51.10
2018-01-14T02:18:12.970Z,50.50
2018-01-14T02:20:40.811Z,48.70
2018-01-14T02:23:09.911Z,48.50
2018-01-14T02:25:37.667Z,47.20
2018-01-14T02:28:05.430Z,46.60
2018-01-14T02:30:33.291Z,46.60
2018-01-14T02:33:01.125Z,46.70
2018-01-14T02:35:28.908Z,47.00
2018-01-14T02:37:57.079Z,47.40
2018-01-14T02:40:24.887Z,47.70
2018-01-14T02:42:52.645Z,48.10
2018-01-14T02:45:21.331Z,48.30
2018-01-14T02:47:49.271Z,48.50
2018-01-14T02:50:17.128Z,48.70
2018-01-14T02:52:45.072Z,48.70
2018-01-14T02:55:13.015Z,48.50
2018-01-14T02:57:41.894Z,48.30
2018-01-14T03:00:09.677Z,48.50
2018-01-14T03:02:39.503Z,48.80
2018-01-14T03:05:07.447Z,48.60
2018-01-14T03:07:35.389Z,48.70
2018-01-14T03:10:03.278Z,48.50
2018-01-14T03:12:31.243Z,48.40
2018-01-14T03:14:59.074Z,48.70
2018-01-14T03:17:27.010Z,48.70
2018-01-14T03:19:54.951Z,48.80
2018-01-14T03:22:22.856Z,48.60
2018-01-14T03:24:50.795Z,48.60
2018-01-14T03:27:19.775Z,48.40
2018-01-14T03:29:47.658Z,48.50
2018-01-14T03:32:15.610Z,47.90
2018-01-14T03:34:43.587Z,47.60
2018-01-14T03:37:17.538Z,47.60
2018-01-14T03:39:45.424Z,47.40
2018-01-14T03:42:25.267Z,47.30
2018-01-14T03:44:53.236Z,46.50
2018-01-14T03:47:21.182Z,47.20
2018-01-14T03:49:49.171Z,46.80
2018-01-14T03:52:17.061Z,47.00
2018-01-14T03:54:46.127Z,46.80
2018-01-14T03:57:13.939Z,47.10
2018-01-14T03:59:41.772Z,47.10
2018-01-14T04:02:09.562Z,47.10
2018-01-14T04:04:37.373Z,46.60
2018-01-14T04:07:05.140Z,46.20
2018-01-14T04:09:32.919Z,46.00
2018-01-14T04:12:00.715Z,46.40
2018-01-14T04:14:28.511Z,46.50
2018-01-14T04:16:56.268Z,46.60
2018-01-14T04:19:24.109Z,46.40
2018-01-14T04:21:51.866Z,46.80
2018-01-14T04:24:19.698Z,47.00
2018-01-14T04:26:47.542Z,47.40
2018-01-14T04:29:15.335Z,47.50
2018-01-14T04:31:43.170Z,47.50
2018-01-14T04:34:10.947Z,47.50
2018-01-14T04:36:38.731Z,47.50
2018-01-14T04:39:06.545Z,47.80
2018-01-14T04:41:34.318Z,47.90
2018-01-14T04:44:02.131Z,48.00
2018-01-14T04:46:29.963Z,48.10
2018-01-14T04:48:57.783Z,48.10
2018-01-14T04:51:25.579Z,48.30
2018-01-14T04:53:55.398Z,48.40
2018-01-14T04:56:23.229Z,48.40
2018-01-14T04:58:50.992Z,48.50
2018-01-14T05:01:18.757Z,48.50
2018-01-14T05:03:46.544Z,48.60
2018-01-14T05:06:14.314Z,48.60
2018-01-14T05:08:42.109Z,48.80
2018-01-14T05:11:09.892Z,48.80
2018-01-14T05:13:37.647Z,48.70
2018-01-14T05:16:05.442Z,48.70
2018-01-14T05:18:33.221Z,48.30
2018-01-14T05:21:01.099Z,47.60
2018-01-14T05:23:28.934Z,47.80
2018-01-14T05:25:56.763Z,48.10
2018-01-14T05:28:24.518Z,48.40
2018-01-14T05:30:52.443Z,48.50
2018-01-14T05:33:20.326Z,48.60
2018-01-14T05:35:48.100Z,48.60
2018-01-14T05:38:15.875Z,48.70
2018-01-14T05:40:43.642Z,48.70
2018-01-14T05:43:11.407Z,48.80
2018-01-14T05:45:39.286Z,48.80
2018-01-14T05:48:07.139Z,48.80
2018-01-14T05:50:34.907Z,48.60
2018-01-14T05:53:03.435Z,48.50
2018-01-14T05:55:31.239Z,48.60
2018-01-14T05:57:59.029Z,48.70
2018-01-14T06:00:26.819Z,48.70
2018-01-14T06:02:55.351Z,48.40
2018-01-14T06:05:23.111Z,48.40
2018-01-14T06:07:51.018Z,48.40
2018-01-14T06:10:18.851Z,48.30
2018-01-14T06:12:46.611Z,48.20
2018-01-14T06:15:14.371Z,48.10
2018-01-14T06:17:42.156Z,48.20
2018-01-14T06:20:09.982Z,48.20
2018-01-14T06:22:37.749Z,48.20
2018-01-14T06:25:05.510Z,48.20
2018-01-14T06:27:33.307Z,48.30
2018-01-14T06:30:02.013Z,48.40
2018-01-14T06:32:29.913Z,48.20
2018-01-14T06:34:57.690Z,48.30
2018-01-14T06:37:25.458Z,48.40
2018-01-14T06:39:53.275Z,48.30
2018-01-14T06:42:21.058Z,48.50
2018-01-14T06:44:48.815Z,48.50
2018-01-14T06:47:16.589Z,48.60
2018-01-14T06:49:44.376Z,48.60
2018-01-14T06:52:12.135Z,48.60
2018-01-14T06:54:41.003Z,48.60
2018-01-14T06:57:08.891Z,48.60
2018-01-14T06:59:36.829Z,48.70
2018-01-14T07:04:38.880Z,48.80
2018-01-14T07:07:06.775Z,48.80
2018-01-14T07:09:34.651Z,48.80
2018-01-14T07:12:02.736Z,48.70
2018-01-14T07:14:30.715Z,48.80
2018-01-14T07:16:58.634Z,48.90
2018-01-14T07:19:26.578Z,49.00
2018-01-14T07:21:54.710Z,48.90
2018-01-14T07:24:22.658Z,48.90
2018-01-14T07:29:24.620Z,48.80
2018-01-14T07:31:52.689Z,48.80
2018-01-14T07:34:20.724Z,48.60
2018-01-14T07:36:48.756Z,48.40
2018-01-14T07:39:20.472Z,48.50
2018-01-14T07:41:48.304Z,48.40
2018-01-14T07:44:16.114Z,48.30
2018-01-14T07:46:44.463Z,48.20
2018-01-14T07:49:13.716Z,47.80
2018-01-14T07:51:42.788Z,47.50
2018-01-14T07:54:12.012Z,47.50
2018-01-14T07:56:41.262Z,47.50
2018-01-14T07:59:10.518Z,47.60
2018-01-14T08:01:39.663Z,47.50
2018-01-14T08:04:08.667Z,47.60
2018-01-14T08:06:39.121Z,47.50
2018-01-14T08:09:08.371Z,47.60
2018-01-14T08:11:37.228Z,47.50
2018-01-14T08:14:06.404Z,47.50
2018-01-14T08:16:35.628Z,47.30
2018-01-14T08:19:05.986Z,47.10
2018-01-14T08:21:36.344Z,46.90
2018-01-14T08:24:04.688Z,46.90
2018-01-14T08:26:33.483Z,46.80
2018-01-14T08:29:01.849Z,46.90
2018-01-14T08:31:30.024Z,47.00
2018-01-14T08:33:59.268Z,47.00
2018-01-14T08:36:28.445Z,47.10
2018-01-14T08:38:57.691Z,47.00
2018-01-14T08:41:26.909Z,46.90
2018-01-14T08:43:56.206Z,46.70
2018-01-14T08:46:26.187Z,46.00
2018-01-14T08:48:55.928Z,46.00
2018-01-14T08:51:23.816Z,45.90
2018-01-14T08:53:51.646Z,45.80
2018-01-14T08:56:19.648Z,45.60
2018-01-14T08:58:47.423Z,45.40
2018-01-14T09:01:15.259Z,45.30
2018-01-14T09:03:44.025Z,45.20
2018-01-14T09:06:11.907Z,45.00
2018-01-14T09:08:40.729Z,44.30
2018-01-14T09:11:10.147Z,44.00
2018-01-14T09:13:38.958Z,44.00
2018-01-14T09:16:10.941Z,42.80
2018-01-14T09:18:40.239Z,42.60
2018-01-14T09:21:08.031Z,42.10
2018-01-14T09:23:36.563Z,41.10
2018-01-14T09:26:04.348Z,41.10
2018-01-14T09:28:32.146Z,41.20
2018-01-14T09:31:03.791Z,41.40
2018-01-14T09:33:32.413Z,41.10
2018-01-14T09:36:00.227Z,41.10
2018-01-14T09:38:28.994Z,40.70
2018-01-14T09:40:57.728Z,43.20
2018-01-14T09:43:25.522Z,44.50
2018-01-14T09:45:53.354Z,44.70
2018-01-14T09:48:21.934Z,44.90
2018-01-14T09:50:49.709Z,44.90
2018-01-14T09:53:18.232Z,41.30
2018-01-14T09:55:46.005Z,41.30
2018-01-14T09:58:19.307Z,40.60
2018-01-14T10:00:47.147Z,40.90
2018-01-14T10:03:14.943Z,40.80
2018-01-14T10:05:42.703Z,41.10
2018-01-14T10:08:10.498Z,40.10
2018-01-14T10:10:39.158Z,38.70
2018-01-14T10:13:06.959Z,38.70
2018-01-14T10:15:35.666Z,37.90
2018-01-14T10:18:03.525Z,40.10
2018-01-14T10:20:31.313Z,42.80
2018-01-14T10:22:59.111Z,43.10
2018-01-14T10:25:26.892Z,43.80
2018-01-14T10:27:55.485Z,45.40
2018-01-14T10:30:24.081Z,45.70
2018-01-14T10:32:51.883Z,45.70
2018-01-14T10:35:19.709Z,45.20
2018-01-14T10:37:47.522Z,44.30
2018-01-14T10:40:15.311Z,44.40
2018-01-14T10:42:43.095Z,44.70
2018-01-14T10:45:10.915Z,44.80
2018-01-14T10:47:38.737Z,44.40
2018-01-14T10:50:06.524Z,44.60
2018-01-14T10:52:34.660Z,44.80
2018-01-14T10:55:04.337Z,45.10
2018-01-14T10:57:33.027Z,43.80
2018-01-14T11:00:00.878Z,43.80
2018-01-14T11:02:28.635Z,44.10
2018-01-14T11:04:56.404Z,44.40
2018-01-14T11:07:24.202Z,45.00
2018-01-14T11:09:51.959Z,45.20
2018-01-14T11:12:19.750Z,45.50
2018-01-14T11:14:47.808Z,46.10
2018-01-14T11:17:15.570Z,47.20
2018-01-14T11:19:43.400Z,46.40
2018-01-14T11:22:11.342Z,45.70
2018-01-14T11:24:39.256Z,45.30
2018-01-14T11:27:07.030Z,44.30
2018-01-14T11:29:41.582Z,43.00
2018-01-14T11:32:09.391Z,43.00
2018-01-14T11:34:37.173Z,42.70
2018-01-14T11:37:04.979Z,42.60
2018-01-14T11:39:32.737Z,43.30
2018-01-14T11:42:00.586Z,43.30
2018-01-14T11:44:28.388Z,44.10
2018-01-14T11:46:56.151Z,43.10
2018-01-14T11:49:23.982Z,43.80
2018-01-14T11:51:51.765Z,44.20
2018-01-14T11:54:19.587Z,44.30
2018-01-14T11:56:47.358Z,44.20
2018-01-14T11:59:15.965Z,44.90
2018-01-14T12:01:43.756Z,44.40
2018-01-14T12:04:11.543Z,45.00
2018-01-14T12:06:39.382Z,44.70
2018-01-14T12:09:07.154Z,44.80
2018-01-14T12:11:34.919Z,45.00
2018-01-14T12:14:02.679Z,45.00
2018-01-14T12:16:30.519Z,44.40
2018-01-14T12:18:58.323Z,44.70
2018-01-14T12:21:26.103Z,44.40
2018-01-14T12:23:53.896Z,44.60
2018-01-14T12:26:22.442Z,45.70
2018-01-14T12:28:50.211Z,45.70
2018-01-14T12:31:17.984Z,46.30
2018-01-14T12:37:02.586Z,47.50
2018-01-14T12:39:30.370Z,48.30
2018-01-14T12:41:58.252Z,48.50
2018-01-14T12:44:26.051Z,49.60
2018-01-14T12:46:53.864Z,50.10
2018-01-14T12:49:21.643Z,50.80
2018-01-14T12:51:49.416Z,51.00
2018-01-14T12:54:17.200Z,51.60
2018-01-14T12:56:44.994Z,52.10
2018-01-14T12:59:13.547Z,51.90
2018-01-14T13:01:41.382Z,51.80
2018-01-14T13:04:09.164Z,51.70
2018-01-14T13:06:37.745Z,51.70
2018-01-14T13:09:05.527Z,51.80
2018-01-14T13:11:33.421Z,51.50
2018-01-14T13:14:01.976Z,51.40
2018-01-14T13:16:29.802Z,51.40
2018-01-14T13:18:57.604Z,51.50
2018-01-14T13:21:25.456Z,51.10
2018-01-14T13:23:53.331Z,50.70
2018-01-14T13:26:21.103Z,50.70
2018-01-14T13:28:48.898Z,50.70
2018-01-14T13:31:17.474Z,50.50
2018-01-14T13:33:45.304Z,50.50
2018-01-14T13:36:13.087Z,50.50
2018-01-14T13:38:40.904Z,50.30
2018-01-14T13:41:09.487Z,50.50
2018-01-14T13:43:37.289Z,50.40
2018-01-14T13:46:05.073Z,50.50
2018-01-14T13:48:33.652Z,50.20
2018-01-14T13:51:01.446Z,50.10
2018-01-14T13:53:30.003Z,50.90
2018-01-14T13:55:58.671Z,51.70
2018-01-14T13:58:27.310Z,51.10
2018-01-14T14:00:55.189Z,50.90
2018-01-14T14:03:22.980Z,50.40
2018-01-14T14:05:50.809Z,49.50
2018-01-14T14:08:18.681Z,48.80
2018-01-14T14:10:46.479Z,48.70
2018-01-14T14:13:14.266Z,48.70
2018-01-14T14:15:42.835Z,49.30
2018-01-14T14:18:10.671Z,49.30
2018-01-14T14:20:38.561Z,49.40
2018-01-14T14:23:06.402Z,49.40
2018-01-14T14:25:34.191Z,49.10
2018-01-14T14:28:01.986Z,48.90
2018-01-14T14:30:30.528Z,48.70
2018-01-14T14:33:00.283Z,48.60
2018-01-14T14:35:31.096Z,49.70
2018-01-14T14:37:59.043Z,49.60
2018-01-14T14:40:35.656Z,51.30
2018-01-14T14:43:04.259Z,54.20
2018-01-14T14:45:32.068Z,54.30
2018-01-14T14:47:59.882Z,55.70
2018-01-14T14:50:27.668Z,56.60
2018-01-14T14:52:55.477Z,56.40
2018-01-14T14:55:23.238Z,57.50
2018-01-14T14:57:51.016Z,57.30
2018-01-14T15:00:18.802Z,58.20
2018-01-14T15:02:47.359Z,58.20
2018-01-14T15:05:15.139Z,58.30
2018-01-14T15:07:43.754Z,57.90
2018-01-14T15:10:11.635Z,57.90
2018-01-14T15:12:39.517Z,58.00
2018-01-14T15:15:07.876Z,58.10
2018-01-14T15:17:35.710Z,58.40
2018-01-14T15:20:03.843Z,58.20
2018-01-14T15:22:32.517Z,58.60
2018-01-14T15:25:00.299Z,58.20
2018-01-14T15:27:28.144Z,58.10
2018-01-14T15:29:56.027Z,58.30
2018-01-14T15:32:23.825Z,57.30
2018-01-14T15:34:51.632Z,57.60
2018-01-14T15:37:19.479Z,57.30
2018-01-14T15:39:47.295Z,57.50
2018-01-14T15:42:15.126Z,56.90
2018-01-14T15:44:42.897Z,57.10
2018-01-14T15:47:10.648Z,57.30
2018-01-14T15:49:38.450Z,57.30
2018-01-14T15:52:06.365Z,58.40
2018-01-14T15:54:34.135Z,58.30
2018-01-14T15:57:02.097Z,59.70
2018-01-14T15:59:30.011Z,58.70
2018-01-14T16:01:57.807Z,59.10
2018-01-14T16:04:25.704Z,59.10
2018-01-14T16:06:55.428Z,58.80
2018-01-14T16:09:23.265Z,59.50
2018-01-14T16:11:51.096Z,59.40
2018-01-14T16:14:18.883Z,59.20
2018-01-14T16:16:46.670Z,59.70
2018-01-14T16:19:16.982Z,60.20
2018-01-14T16:21:45.303Z,60.50
2018-01-14T16:24:13.074Z,59.90
2018-01-14T16:26:40.911Z,59.50
2018-01-14T16:29:15.670Z,58.90
2018-01-14T16:31:43.624Z,58.70
2018-01-14T16:34:16.338Z,58.90
2018-01-14T16:36:47.163Z,58.60
2018-01-14T16:39:15.549Z,58.50
2018-01-14T16:41:43.319Z,58.70
2018-01-14T16:44:11.086Z,59.00
2018-01-14T16:46:39.693Z,60.10
2018-01-14T16:49:07.507Z,60.10
2018-01-14T16:51:35.329Z,59.80
2018-01-14T16:54:03.095Z,59.90
2018-01-14T16:56:30.867Z,59.50
2018-01-14T16:59:01.586Z,59.50
2018-01-14T17:01:30.284Z,59.40
2018-01-14T17:03:58.106Z,59.40
2018-01-14T17:06:25.975Z,59.80
2018-01-14T17:08:57.582Z,60.50
2018-01-14T17:11:33.650Z,62.10
2018-01-14T17:14:02.052Z,61.60
2018-01-14T17:16:29.836Z,61.00
2018-01-14T17:18:58.377Z,61.20
2018-01-14T17:21:26.164Z,61.20
2018-01-14T17:23:54.083Z,61.40
2018-01-14T17:26:21.857Z,61.80
2018-01-14T17:28:49.626Z,61.50
2018-01-14T17:31:17.427Z,59.90
2018-01-14T17:33:45.259Z,58.70
2018-01-14T17:36:13.071Z,58.20
2018-01-14T17:38:41.674Z,58.50
2018-01-14T17:41:09.456Z,58.50
2018-01-14T17:43:37.262Z,59.80
2018-01-14T17:46:05.027Z,59.70
2018-01-14T17:48:32.809Z,60.10
2018-01-14T17:51:01.334Z,61.50
2018-01-14T17:53:29.130Z,60.90
2018-01-14T17:55:56.914Z,61.20
2018-01-14T17:58:25.464Z,60.70
2018-01-14T18:00:53.287Z,60.70
2018-01-14T18:03:21.824Z,61.00
2018-01-14T18:05:49.610Z,61.00
2018-01-14T18:08:17.419Z,61.20
2018-01-14T18:10:45.192Z,61.30
2018-01-14T18:13:13.010Z,61.20
2018-01-14T18:15:41.629Z,60.90
2018-01-14T18:18:09.436Z,61.00
2018-01-14T18:20:37.284Z,60.90
2018-01-14T18:23:05.075Z,60.70
2018-01-14T18:25:32.924Z,60.40
2018-01-14T18:28:00.727Z,60.40
2018-01-14T18:30:29.331Z,59.60
2018-01-14T18:32:57.244Z,59.60
2018-01-14T18:35:25.070Z,59.50
2018-01-14T18:37:52.867Z,59.40
2018-01-14T18:40:20.630Z,59.20
2018-01-14T18:42:48.419Z,58.70
2018-01-14T18:45:16.245Z,58.50
2018-01-14T18:47:44.037Z,58.70
2018-01-14T18:50:11.847Z,58.70
2018-01-14T18:52:39.632Z,58.60
2018-01-14T18:55:08.285Z,58.50
2018-01-14T18:57:36.053Z,58.50
2018-01-14T19:00:03.954Z,58.30
2018-01-14T19:02:31.755Z,58.10
2018-01-14T19:04:59.531Z,57.90
2018-01-14T19:07:28.094Z,57.80
2018-01-14T19:09:55.875Z,57.80
2018-01-14T19:12:24.485Z,58.80
2018-01-14T19:14:52.262Z,58.20
2018-01-14T19:17:20.101Z,58.40
2018-01-14T19:19:48.642Z,58.50
2018-01-14T19:22:16.403Z,58.50
2018-01-14T19:24:44.223Z,58.20
2018-01-14T19:27:12.148Z,58.20
2018-01-14T19:29:39.950Z,58.40
2018-01-14T19:32:08.571Z,59.70
2018-01-14T19:34:36.390Z,59.70
2018-01-14T19:37:05.989Z,59.90
2018-01-14T19:39:34.550Z,60.00
2018-01-14T19:42:02.392Z,60.00
2018-01-14T19:44:30.234Z,60.60
2018-01-14T19:46:58.062Z,60.50
2018-01-14T19:49:25.827Z,60.70
2018-01-14T19:51:53.827Z,60.90
2018-01-14T19:54:21.701Z,60.50
2018-01-14T19:56:49.543Z,60.60
2018-01-14T19:59:17.430Z,60.70
2018-01-14T20:01:45.291Z,60.50
2018-01-14T20:04:13.084Z,59.90
2018-01-14T20:06:41.800Z,59.60
2018-01-14T20:09:09.599Z,59.60
2018-01-14T20:11:37.798Z,59.50
2018-01-14T20:14:05.635Z,59.20
2018-01-14T20:16:33.557Z,59.10
2018-01-14T20:19:01.486Z,59.10
2018-01-14T20:21:29.292Z,58.90
2018-01-14T20:23:57.073Z,58.70
2018-01-14T20:26:24.874Z,58.90
2018-01-14T20:28:53.126Z,58.90
2018-01-14T20:31:22.241Z,59.10
2018-01-14T20:33:50.148Z,59.20
2018-01-14T20:36:20.176Z,59.10
2018-01-14T20:38:50.017Z,58.70
2018-01-14T20:41:19.796Z,58.20
2018-01-14T20:43:47.867Z,58.10
2018-01-14T20:46:16.001Z,58.00
2018-01-14T20:48:43.905Z,58.00
2018-01-14T20:51:13.274Z,57.90
2018-01-14T20:53:41.216Z,58.00
2018-01-14T20:56:10.250Z,58.10
2018-01-14T20:58:42.147Z,58.10
2018-01-14T21:01:11.338Z,58.10
2018-01-14T21:03:40.454Z,58.20
2018-01-14T21:06:15.098Z,58.20
2018-01-14T21:08:44.251Z,58.30
2018-01-14T21:11:17.840Z,58.00
2018-01-14T21:13:46.198Z,58.10
2018-01-14T21:16:14.043Z,58.00
2018-01-14T21:18:41.825Z,58.10
2018-01-14T21:21:09.605Z,58.10
2018-01-14T21:23:56.493Z,58.10
2018-01-14T21:26:24.295Z,58.20
2018-01-14T21:28:52.127Z,58.00
2018-01-14T21:31:19.903Z,57.80
2018-01-14T21:33:47.786Z,57.70
2018-01-14T21:36:15.646Z,57.60
2018-01-14T21:38:43.432Z,57.40
2018-01-14T21:41:11.196Z,57.40
2018-01-14T21:43:39.000Z,57.30
2018-01-14T21:46:06.785Z,57.30
2018-01-14T21:48:34.601Z,57.30
2018-01-14T21:51:02.380Z,57.20
2018-01-14T21:53:30.985Z,57.10
2018-01-14T21:55:58.803Z,57.10
2018-01-14T21:58:26.642Z,56.90
2018-01-14T22:00:54.467Z,56.70
2018-01-14T22:03:22.332Z,56.70
2018-01-14T22:05:50.087Z,56.60
2018-01-14T22:08:18.630Z,56.10
2018-01-14T22:10:46.440Z,56.10
2018-01-14T22:13:14.201Z,55.80
2018-01-14T22:15:41.967Z,55.60
2018-01-14T22:18:09.804Z,56.00
2018-01-14T22:20:37.566Z,55.10
2018-01-14T22:23:05.445Z,54.90
2018-01-14T22:25:33.243Z,54.50
2018-01-14T22:28:01.012Z,54.40
2018-01-14T22:30:28.770Z,54.30
2018-01-14T22:32:56.559Z,54.30
2018-01-14T22:35:24.446Z,54.20
2018-01-14T22:37:52.245Z,54.10
2018-01-14T22:40:20.939Z,54.30
2018-01-14T22:42:48.998Z,54.30
2018-01-14T22:45:16.929Z,54.40
2018-01-14T22:47:45.463Z,54.40
2018-01-14T22:52:47.457Z,54.30
2018-01-14T22:55:17.784Z,54.30
2018-01-14T22:57:46.878Z,53.90
2018-01-14T23:01:05.593Z,53.70
2018-01-14T23:03:33.535Z,53.70
2018-01-14T23:06:01.479Z,53.60
2018-01-14T23:08:30.326Z,53.50
2018-01-14T23:10:59.587Z,53.60
2018-01-14T23:13:27.589Z,53.60
2018-01-14T23:15:56.731Z,53.60
2018-01-14T23:18:25.900Z,53.50
2018-01-14T23:20:56.649Z,53.70
2018-01-14T23:23:25.764Z,53.10
2018-01-14T23:25:54.768Z,52.90
2018-01-14T23:28:22.638Z,52.90
2018-01-14T23:30:50.518Z,52.70
2018-01-14T23:33:21.028Z,52.70
2018-01-14T23:35:49.839Z,51.80
2018-01-14T23:38:17.726Z,50.00
2018-01-14T23:40:45.752Z,49.90
2018-01-14T23:43:13.772Z,49.40
2018-01-14T23:45:41.765Z,48.60
2018-01-14T23:48:10.105Z,48.50
2018-01-14T23:50:39.930Z,48.20
2018-01-14T23:53:08.590Z,48.10
2018-01-14T23:58:20.479Z,48.20
